logo
Search for airport 
image banner adimage banner adimage banner ad
image banner ad

MMLHN - La Habana

Located in Hermosillo, Mexico

ICAO - , IATA -

Data provided by Airmate  

General information

Coordinates: N28°52'25" W111°16'36"
Elevation is 341 feet MSL.
Magnetic variation is 8° East
View others Airports in Sonora

Operational data

Special qualification required
Current time UTC:
Current local time:
METAR: MMHO 180640Z 35003KT 10SM SKC 20/00 A2993 RMK HZY
View NOTAMs / SUP AIP / TFR affecting this airport [VIEW]
Communications frequencies: [VIEW]

Runways:

RWY identifierQFULength (ft)Width (ft)SurfaceLDA (ft)
22234°270040DIRT
0454°270040DIRT

Airport contact information

Address: Hermosillo Mexico

Satellite view of MMLHN